sensor_id;sensor_type;location;lat;lon;timestamp;P1;durP1;ratioP1;P2;durP2;ratioP2
2972;SDS011;1496;51.404;7.232;2023-03-01T00:01:29;15.13;;;9.03;;
2972;SDS011;1496;51.404;7.232;2023-03-01T00:03:56;10.40;;;8.33;;
2972;SDS011;1496;51.404;7.232;2023-03-01T00:06:23;12.13;;;8.87;;
2972;SDS011;1496;51.404;7.232;2023-03-01T00:08:50;16.07;;;8.57;;
2972;SDS011;1496;51.404;7.232;2023-03-01T00:11:17;13.43;;;8.83;;
2972;SDS011;1496;51.404;7.232;2023-03-01T00:13:48;15.33;;;8.47;;
2972;SDS011;1496;51.404;7.232;2023-03-01T00:16:21;13.73;;;9.10;;
2972;SDS011;1496;51.404;7.232;2023-03-01T00:18:51;12.10;;;8.47;;
2972;SDS011;1496;51.404;7.232;2023-03-01T00:21:20;11.63;;;8.20;;
2972;SDS011;1496;51.404;7.232;2023-03-01T00:23:47;12.77;;;8.93;;
2972;SDS011;1496;51.404;7.232;2023-03-01T00:26:14;10.13;;;8.10;;
2972;SDS011;1496;51.404;7.232;2023-03-01T00:28:41;11.80;;;8.13;;
2972;SDS011;1496;51.404;7.232;2023-03-01T00:31:11;12.70;;;8.97;;
2972;SDS011;1496;51.404;7.232;2023-03-01T00:33:39;12.23;;;8.90;;
2972;SDS011;1496;51.404;7.232;2023-03-01T00:36:05;11.03;;;8.13;;
2972;SDS011;1496;51.404;7.232;2023-03-01T00:38:34;19.60;;;8.80;;
2972;SDS011;1496;51.404;7.232;2023-03-01T00:41:09;14.77;;;9.73;;
2972;SDS011;1496;51.404;7.232;2023-03-01T00:43:36;13.27;;;8.10;;
2972;SDS011;1496;51.404;7.232;2023-03-01T00:46:05;11.63;;;9.07;;
2972;SDS011;1496;51.404;7.232;2023-03-01T00:48:33;12.50;;;8.70;;
2972;SDS011;1496;51.404;7.232;2023-03-01T00:51:09;11.13;;;8.60;;
2972;SDS011;1496;51.404;7.232;2023-03-01T00:53:36;14.30;;;8.00;;
2972;SDS011;1496;51.404;7.232;2023-03-01T00:56:03;14.67;;;9.17;;
2972;SDS011;1496;51.404;7.232;2023-03-01T00:58:30;11.97;;;7.80;;
2972;SDS011;1496;51.404;7.232;2023-03-01T01:00:55;16.73;;;9.00;;
2972;SDS011;1496;51.404;7.232;2023-03-01T01:03:21;12.87;;;8.07;;
2972;SDS011;1496;51.404;7.232;2023-03-01T01:05:49;12.60;;;7.43;;
2972;SDS011;1496;51.404;7.232;2023-03-01T01:08:16;15.40;;;8.63;;
2972;SDS011;1496;51.404;7.232;2023-03-01T01:10:43;16.17;;;8.50;;
2972;SDS011;1496;51.404;7.232;2023-03-01T01:13:10;11.20;;;7.30;;
2972;SDS011;1496;51.404;7.232;2023-03-01T01:15:36;14.60;;;9.40;;
2972;SDS011;1496;51.404;7.232;2023-03-01T01:18:02;13.30;;;9.30;;
2972;SDS011;1496;51.404;7.232;2023-03-01T01:20:28;13.43;;;9.10;;
2972;SDS011;1496;51.404;7.232;2023-03-01T01:22:53;19.27;;;9.07;;
2972;SDS011;1496;51.404;7.232;2023-03-01T01:25:19;14.60;;;8.70;;
2972;SDS011;1496;51.404;7.232;2023-03-01T01:27:45;13.50;;;9.47;;
2972;SDS011;1496;51.404;7.232;2023-03-01T01:30:11;10.67;;;7.70;;
2972;SDS011;1496;51.404;7.232;2023-03-01T01:32:37;11.53;;;8.60;;
2972;SDS011;1496;51.404;7.232;2023-03-01T01:35:03;10.10;;;7.97;;
2972;SDS011;1496;51.404;7.232;2023-03-01T01:37:29;11.97;;;10.03;;
2972;SDS011;1496;51.404;7.232;2023-03-01T01:39:58;12.60;;;8.40;;
2972;SDS011;1496;51.404;7.232;2023-03-01T01:42:24;12.93;;;9.17;;
2972;SDS011;1496;51.404;7.232;2023-03-01T01:47:54;10.60;;;8.43;;
2972;SDS011;1496;51.404;7.232;2023-03-01T01:50:23;13.97;;;9.23;;
2972;SDS011;1496;51.404;7.232;2023-03-01T01:52:50;16.57;;;8.40;;
2972;SDS011;1496;51.404;7.232;2023-03-01T01:55:18;15.10;;;8.63;;
2972;SDS011;1496;51.404;7.232;2023-03-01T01:57:51;15.30;;;9.67;;
2972;SDS011;1496;51.404;7.232;2023-03-01T02:00:25;15.73;;;10.20;;
2972;SDS011;1496;51.404;7.232;2023-03-01T02:02:59;11.80;;;8.93;;
2972;SDS011;1496;51.404;7.232;2023-03-01T02:08:13;13.13;;;9.53;;
2972;SDS011;1496;51.404;7.232;2023-03-01T02:10:41;12.70;;;10.00;;
2972;SDS011;1496;51.404;7.232;2023-03-01T02:13:08;16.63;;;9.90;;
2972;SDS011;1496;51.404;7.232;2023-03-01T02:15:34;13.13;;;9.00;;
2972;SDS011;1496;51.404;7.232;2023-03-01T02:18:02;12.97;;;9.80;;
2972;SDS011;1496;51.404;7.232;2023-03-01T02:23:20;20.63;;;9.33;;
2972;SDS011;1496;51.404;7.232;2023-03-01T02:31:02;15.10;;;9.63;;
2972;SDS011;1496;51.404;7.232;2023-03-01T02:33:49;14.57;;;8.40;;
2972;SDS011;1496;51.404;7.232;2023-03-01T02:36:17;10.20;;;7.90;;
2972;SDS011;1496;51.404;7.232;2023-03-01T02:38:46;11.70;;;9.73;;
2972;SDS011;1496;51.404;7.232;2023-03-01T02:41:15;12.50;;;9.40;;
2972;SDS011;1496;51.404;7.232;2023-03-01T02:43:42;13.27;;;10.10;;
2972;SDS011;1496;51.404;7.232;2023-03-01T02:46:13;12.93;;;8.90;;
2972;SDS011;1496;51.404;7.232;2023-03-01T02:48:45;10.77;;;8.40;;
2972;SDS011;1496;51.404;7.232;2023-03-01T02:51:22;14.10;;;9.43;;
2972;SDS011;1496;51.404;7.232;2023-03-01T02:54:17;12.10;;;9.17;;
2972;SDS011;1496;51.404;7.232;2023-03-01T02:57:10;11.97;;;8.63;;
2972;SDS011;1496;51.404;7.232;2023-03-01T02:59:37;16.17;;;12.23;;
2972;SDS011;1496;51.404;7.232;2023-03-01T03:02:27;14.17;;;9.10;;
2972;SDS011;1496;51.404;7.232;2023-03-01T03:05:12;15.53;;;10.97;;
2972;SDS011;1496;51.404;7.232;2023-03-01T03:07:41;14.37;;;9.70;;
2972;SDS011;1496;51.404;7.232;2023-03-01T03:10:10;18.90;;;11.47;;
2972;SDS011;1496;51.404;7.232;2023-03-01T03:12:39;12.00;;;9.23;;
2972;SDS011;1496;51.404;7.232;2023-03-01T03:15:07;15.93;;;10.70;;
2972;SDS011;1496;51.404;7.232;2023-03-01T03:17:38;16.60;;;10.53;;
2972;SDS011;1496;51.404;7.232;2023-03-01T03:20:05;12.70;;;11.20;;
2972;SDS011;1496;51.404;7.232;2023-03-01T03:22:36;16.10;;;9.87;;
2972;SDS011;1496;51.404;7.232;2023-03-01T03:25:03;19.23;;;10.60;;
2972;SDS011;1496;51.404;7.232;2023-03-01T03:27:29;13.70;;;10.23;;
2972;SDS011;1496;51.404;7.232;2023-03-01T03:29:57;14.93;;;9.57;;
2972;SDS011;1496;51.404;7.232;2023-03-01T03:32:22;13.33;;;9.00;;
2972;SDS011;1496;51.404;7.232;2023-03-01T03:34:48;17.57;;;10.13;;
2972;SDS011;1496;51.404;7.232;2023-03-01T03:37:14;11.13;;;8.17;;
2972;SDS011;1496;51.404;7.232;2023-03-01T03:39:59;11.20;;;7.97;;
2972;SDS011;1496;51.404;7.232;2023-03-01T03:42:25;10.87;;;8.80;;
2972;SDS011;1496;51.404;7.232;2023-03-01T03:44:51;21.10;;;10.67;;
2972;SDS011;1496;51.404;7.232;2023-03-01T03:47:16;15.23;;;10.87;;
2972;SDS011;1496;51.404;7.232;2023-03-01T03:49:42;13.87;;;10.00;;
2972;SDS011;1496;51.404;7.232;2023-03-01T03:52:07;12.00;;;9.30;;
2972;SDS011;1496;51.404;7.232;2023-03-01T03:54:39;10.83;;;8.43;;
2972;SDS011;1496;51.404;7.232;2023-03-01T03:57:05;15.70;;;10.60;;
2972;SDS011;1496;51.404;7.232;2023-03-01T03:59:31;13.30;;;8.87;;
2972;SDS011;1496;51.404;7.232;2023-03-01T04:01:57;13.23;;;9.57;;
2972;SDS011;1496;51.404;7.232;2023-03-01T04:04:22;17.10;;;9.77;;
2972;SDS011;1496;51.404;7.232;2023-03-01T04:06:48;13.90;;;9.63;;
2972;SDS011;1496;51.404;7.232;2023-03-01T04:09:14;15.63;;;9.60;;
2972;SDS011;1496;51.404;7.232;2023-03-01T04:11:39;15.47;;;10.50;;
2972;SDS011;1496;51.404;7.232;2023-03-01T04:14:05;14.57;;;9.30;;
2972;SDS011;1496;51.404;7.232;2023-03-01T04:16:30;18.03;;;10.30;;
2972;SDS011;1496;51.404;7.232;2023-03-01T04:18:56;14.57;;;9.60;;
2972;SDS011;1496;51.404;7.232;2023-03-01T04:21:24;14.87;;;10.80;;
2972;SDS011;1496;51.404;7.232;2023-03-01T04:23:50;15.87;;;10.37;;
2972;SDS011;1496;51.404;7.232;2023-03-01T04:26:17;13.50;;;9.80;;
2972;SDS011;1496;51.404;7.232;2023-03-01T04:28:44;16.87;;;9.97;;
2972;SDS011;1496;51.404;7.232;2023-03-01T04:31:15;16.13;;;10.50;;
2972;SDS011;1496;51.404;7.232;2023-03-01T04:33:52;19.10;;;10.87;;
2972;SDS011;1496;51.404;7.232;2023-03-01T04:36:21;18.43;;;10.50;;
2972;SDS011;1496;51.404;7.232;2023-03-01T04:38:49;17.37;;;10.60;;
2972;SDS011;1496;51.404;7.232;2023-03-01T04:41:16;14.73;;;9.83;;
2972;SDS011;1496;51.404;7.232;2023-03-01T04:43:44;15.67;;;11.33;;
2972;SDS011;1496;51.404;7.232;2023-03-01T04:46:11;14.80;;;9.87;;
2972;SDS011;1496;51.404;7.232;2023-03-01T04:48:39;13.97;;;9.67;;
2972;SDS011;1496;51.404;7.232;2023-03-01T04:51:06;16.70;;;9.97;;
2972;SDS011;1496;51.404;7.232;2023-03-01T04:53:32;13.17;;;10.30;;
2972;SDS011;1496;51.404;7.232;2023-03-01T04:55:58;12.33;;;10.10;;
2972;SDS011;1496;51.404;7.232;2023-03-01T04:58:25;13.77;;;11.07;;
2972;SDS011;1496;51.404;7.232;2023-03-01T05:00:52;20.10;;;9.60;;
2972;SDS011;1496;51.404;7.232;2023-03-01T05:03:18;15.20;;;11.10;;
2972;SDS011;1496;51.404;7.232;2023-03-01T05:05:45;13.67;;;10.27;;
2972;SDS011;1496;51.404;7.232;2023-03-01T05:08:14;12.47;;;8.90;;
2972;SDS011;1496;51.404;7.232;2023-03-01T05:10:48;17.80;;;9.20;;
2972;SDS011;1496;51.404;7.232;2023-03-01T05:13:15;14.50;;;8.77;;
2972;SDS011;1496;51.404;7.232;2023-03-01T05:15:56;15.67;;;9.70;;
2972;SDS011;1496;51.404;7.232;2023-03-01T05:18:24;25.87;;;10.77;;
2972;SDS011;1496;51.404;7.232;2023-03-01T05:20:54;16.60;;;9.87;;
2972;SDS011;1496;51.404;7.232;2023-03-01T05:23:23;14.93;;;10.77;;
2972;SDS011;1496;51.404;7.232;2023-03-01T05:25:49;15.37;;;10.87;;
2972;SDS011;1496;51.404;7.232;2023-03-01T05:28:17;16.80;;;10.73;;
2972;SDS011;1496;51.404;7.232;2023-03-01T05:30:44;16.83;;;10.07;;
2972;SDS011;1496;51.404;7.232;2023-03-01T05:33:10;17.70;;;12.67;;
2972;SDS011;1496;51.404;7.232;2023-03-01T05:35:42;14.83;;;9.77;;
2972;SDS011;1496;51.404;7.232;2023-03-01T05:38:12;15.57;;;10.27;;
2972;SDS011;1496;51.404;7.232;2023-03-01T05:40:38;16.90;;;11.27;;
2972;SDS011;1496;51.404;7.232;2023-03-01T05:43:05;15.83;;;11.13;;
2972;SDS011;1496;51.404;7.232;2023-03-01T05:45:31;19.70;;;10.33;;
2972;SDS011;1496;51.404;7.232;2023-03-01T05:48:00;19.07;;;10.57;;
2972;SDS011;1496;51.404;7.232;2023-03-01T05:50:26;22.57;;;11.40;;
2972;SDS011;1496;51.404;7.232;2023-03-01T05:55:26;14.90;;;11.37;;
2972;SDS011;1496;51.404;7.232;2023-03-01T05:57:53;16.13;;;11.13;;
2972;SDS011;1496;51.404;7.232;2023-03-01T06:00:19;19.60;;;10.60;;
2972;SDS011;1496;51.404;7.232;2023-03-01T06:02:47;20.97;;;11.80;;
2972;SDS011;1496;51.404;7.232;2023-03-01T06:05:13;22.13;;;14.23;;
2972;SDS011;1496;51.404;7.232;2023-03-01T06:07:40;13.97;;;10.80;;
2972;SDS011;1496;51.404;7.232;2023-03-01T06:10:06;20.20;;;11.30;;
2972;SDS011;1496;51.404;7.232;2023-03-01T06:12:34;14.90;;;9.77;;
2972;SDS011;1496;51.404;7.232;2023-03-01T06:15:01;20.33;;;11.80;;
2972;SDS011;1496;51.404;7.232;2023-03-01T06:17:28;19.10;;;10.57;;
2972;SDS011;1496;51.404;7.232;2023-03-01T06:19:55;20.63;;;10.87;;
2972;SDS011;1496;51.404;7.232;2023-03-01T06:22:21;18.00;;;10.50;;
2972;SDS011;1496;51.404;7.232;2023-03-01T06:24:46;20.23;;;11.10;;
2972;SDS011;1496;51.404;7.232;2023-03-01T06:27:12;18.43;;;11.10;;
2972;SDS011;1496;51.404;7.232;2023-03-01T06:29:38;25.37;;;12.50;;
2972;SDS011;1496;51.404;7.232;2023-03-01T06:32:03;16.37;;;10.60;;
2972;SDS011;1496;51.404;7.232;2023-03-01T06:34:29;18.07;;;12.67;;
2972;SDS011;1496;51.404;7.232;2023-03-01T06:36:55;17.70;;;12.57;;
2972;SDS011;1496;51.404;7.232;2023-03-01T06:39:20;16.93;;;11.70;;
2972;SDS011;1496;51.404;7.232;2023-03-01T06:41:46;18.77;;;11.73;;
2972;SDS011;1496;51.404;7.232;2023-03-01T06:44:12;19.53;;;11.87;;
2972;SDS011;1496;51.404;7.232;2023-03-01T06:46:38;18.40;;;12.17;;
2972;SDS011;1496;51.404;7.232;2023-03-01T06:49:05;18.07;;;11.73;;
2972;SDS011;1496;51.404;7.232;2023-03-01T06:51:34;15.83;;;11.23;;
2972;SDS011;1496;51.404;7.232;2023-03-01T06:54:01;17.07;;;12.07;;
2972;SDS011;1496;51.404;7.232;2023-03-01T06:56:27;16.90;;;11.90;;
2972;SDS011;1496;51.404;7.232;2023-03-01T06:58:53;19.10;;;12.90;;
2972;SDS011;1496;51.404;7.232;2023-03-01T07:01:18;15.13;;;11.23;;
2972;SDS011;1496;51.404;7.232;2023-03-01T07:03:44;19.30;;;11.97;;
2972;SDS011;1496;51.404;7.232;2023-03-01T07:06:09;15.90;;;11.63;;
2972;SDS011;1496;51.404;7.232;2023-03-01T07:08:35;25.67;;;13.40;;
2972;SDS011;1496;51.404;7.232;2023-03-01T07:11:01;19.57;;;12.33;;
2972;SDS011;1496;51.404;7.232;2023-03-01T07:13:28;22.37;;;13.17;;
2972;SDS011;1496;51.404;7.232;2023-03-01T07:15:54;16.50;;;11.40;;
2972;SDS011;1496;51.404;7.232;2023-03-01T07:18:20;18.10;;;13.00;;
2972;SDS011;1496;51.404;7.232;2023-03-01T07:20:46;18.53;;;11.57;;
2972;SDS011;1496;51.404;7.232;2023-03-01T07:23:11;17.60;;;11.47;;
2972;SDS011;1496;51.404;7.232;2023-03-01T07:25:37;19.73;;;12.07;;
2972;SDS011;1496;51.404;7.232;2023-03-01T07:28:03;21.87;;;14.10;;
2972;SDS011;1496;51.404;7.232;2023-03-01T07:30:28;22.50;;;13.40;;
2972;SDS011;1496;51.404;7.232;2023-03-01T07:32:55;19.70;;;12.30;;
2972;SDS011;1496;51.404;7.232;2023-03-01T07:35:22;20.20;;;13.10;;
2972;SDS011;1496;51.404;7.232;2023-03-01T07:37:49;19.03;;;12.53;;
2972;SDS011;1496;51.404;7.232;2023-03-01T07:40:15;21.23;;;13.47;;
2972;SDS011;1496;51.404;7.232;2023-03-01T07:42:41;23.80;;;13.63;;
2972;SDS011;1496;51.404;7.232;2023-03-01T07:45:07;20.27;;;13.10;;
2972;SDS011;1496;51.404;7.232;2023-03-01T07:47:34;27.57;;;14.10;;
2972;SDS011;1496;51.404;7.232;2023-03-01T07:50:00;19.77;;;12.97;;
2972;SDS011;1496;51.404;7.232;2023-03-01T07:52:29;19.20;;;11.90;;
2972;SDS011;1496;51.404;7.232;2023-03-01T07:54:55;18.20;;;13.13;;
2972;SDS011;1496;51.404;7.232;2023-03-01T07:57:21;20.83;;;12.33;;
2972;SDS011;1496;51.404;7.232;2023-03-01T07:59:47;22.77;;;14.17;;
2972;SDS011;1496;51.404;7.232;2023-03-01T08:02:13;21.80;;;13.43;;
2972;SDS011;1496;51.404;7.232;2023-03-01T08:04:41;27.70;;;14.27;;
2972;SDS011;1496;51.404;7.232;2023-03-01T08:07:07;23.97;;;13.83;;
2972;SDS011;1496;51.404;7.232;2023-03-01T08:09:35;33.17;;;15.40;;
2972;SDS011;1496;51.404;7.232;2023-03-01T08:12:02;19.90;;;13.73;;
2972;SDS011;1496;51.404;7.232;2023-03-01T08:14:29;22.27;;;13.60;;
2972;SDS011;1496;51.404;7.232;2023-03-01T08:16:55;18.87;;;13.27;;
2972;SDS011;1496;51.404;7.232;2023-03-01T08:19:21;20.13;;;12.67;;
2972;SDS011;1496;51.404;7.232;2023-03-01T08:21:48;26.30;;;12.73;;
2972;SDS011;1496;51.404;7.232;2023-03-01T08:24:13;24.27;;;12.97;;
2972;SDS011;1496;51.404;7.232;2023-03-01T08:26:39;20.60;;;13.07;;
2972;SDS011;1496;51.404;7.232;2023-03-01T08:29:05;21.33;;;13.37;;
2972;SDS011;1496;51.404;7.232;2023-03-01T08:31:32;25.57;;;13.10;;
2972;SDS011;1496;51.404;7.232;2023-03-01T08:34:04;22.87;;;13.57;;
2972;SDS011;1496;51.404;7.232;2023-03-01T08:36:32;20.30;;;12.80;;
2972;SDS011;1496;51.404;7.232;2023-03-01T08:39:02;20.80;;;14.27;;
2972;SDS011;1496;51.404;7.232;2023-03-01T08:41:28;27.47;;;13.20;;
2972;SDS011;1496;51.404;7.232;2023-03-01T08:43:54;22.00;;;12.70;;
2972;SDS011;1496;51.404;7.232;2023-03-01T08:46:25;19.33;;;13.13;;
2972;SDS011;1496;51.404;7.232;2023-03-01T08:48:52;27.73;;;11.53;;
2972;SDS011;1496;51.404;7.232;2023-03-01T08:51:18;21.57;;;12.60;;
2972;SDS011;1496;51.404;7.232;2023-03-01T08:53:45;19.27;;;12.50;;
2972;SDS011;1496;51.404;7.232;2023-03-01T08:56:12;19.90;;;12.20;;
2972;SDS011;1496;51.404;7.232;2023-03-01T08:58:38;25.70;;;11.57;;
2972;SDS011;1496;51.404;7.232;2023-03-01T09:01:07;17.83;;;11.43;;
2972;SDS011;1496;51.404;7.232;2023-03-01T09:03:34;22.93;;;11.23;;
2972;SDS011;1496;51.404;7.232;2023-03-01T09:06:00;16.00;;;10.37;;
2972;SDS011;1496;51.404;7.232;2023-03-01T09:08:26;17.53;;;11.10;;
2972;SDS011;1496;51.404;7.232;2023-03-01T09:10:52;14.33;;;9.90;;
2972;SDS011;1496;51.404;7.232;2023-03-01T09:13:18;18.47;;;11.57;;
2972;SDS011;1496;51.404;7.232;2023-03-01T09:15:43;16.33;;;9.50;;
2972;SDS011;1496;51.404;7.232;2023-03-01T09:18:09;15.23;;;9.90;;
2972;SDS011;1496;51.404;7.232;2023-03-01T09:20:35;13.87;;;8.87;;
2972;SDS011;1496;51.404;7.232;2023-03-01T09:23:00;19.23;;;9.93;;
2972;SDS011;1496;51.404;7.232;2023-03-01T09:25:26;14.70;;;9.67;;
2972;SDS011;1496;51.404;7.232;2023-03-01T09:27:52;13.17;;;8.67;;
2972;SDS011;1496;51.404;7.232;2023-03-01T09:30:18;14.93;;;9.20;;
2972;SDS011;1496;51.404;7.232;2023-03-01T09:32:44;9.90;;;7.77;;
2972;SDS011;1496;51.404;7.232;2023-03-01T09:35:10;17.13;;;9.53;;
2972;SDS011;1496;51.404;7.232;2023-03-01T09:37:37;12.10;;;7.83;;
2972;SDS011;1496;51.404;7.232;2023-03-01T09:40:06;12.47;;;7.90;;
2972;SDS011;1496;51.404;7.232;2023-03-01T09:42:45;12.13;;;7.47;;
2972;SDS011;1496;51.404;7.232;2023-03-01T09:48:19;11.93;;;7.00;;
2972;SDS011;1496;51.404;7.232;2023-03-01T09:50:49;11.00;;;7.30;;
2972;SDS011;1496;51.404;7.232;2023-03-01T09:53:17;15.10;;;7.67;;
2972;SDS011;1496;51.404;7.232;2023-03-01T09:55:48;14.53;;;7.33;;
2972;SDS011;1496;51.404;7.232;2023-03-01T09:58:50;7.93;;;6.60;;
2972;SDS011;1496;51.404;7.232;2023-03-01T10:05:09;10.83;;;7.40;;
2972;SDS011;1496;51.404;7.232;2023-03-01T10:10:00;9.00;;;6.40;;
2972;SDS011;1496;51.404;7.232;2023-03-01T10:12:33;15.80;;;8.00;;
2972;SDS011;1496;51.404;7.232;2023-03-01T10:15:04;10.40;;;7.00;;
2972;SDS011;1496;51.404;7.232;2023-03-01T10:17:41;13.10;;;7.57;;
2972;SDS011;1496;51.404;7.232;2023-03-01T10:20:17;13.27;;;7.23;;
2972;SDS011;1496;51.404;7.232;2023-03-01T10:22:50;10.13;;;7.00;;
2972;SDS011;1496;51.404;7.232;2023-03-01T10:27:51;9.50;;;6.93;;
2972;SDS011;1496;51.404;7.232;2023-03-01T10:32:53;9.67;;;6.47;;
2972;SDS011;1496;51.404;7.232;2023-03-01T10:35:20;11.53;;;7.60;;
2972;SDS011;1496;51.404;7.232;2023-03-01T10:37:58;12.10;;;6.90;;
2972;SDS011;1496;51.404;7.232;2023-03-01T10:40:27;15.67;;;8.17;;
2972;SDS011;1496;51.404;7.232;2023-03-01T10:42:53;11.10;;;7.13;;
2972;SDS011;1496;51.404;7.232;2023-03-01T10:48:14;11.83;;;7.50;;
2972;SDS011;1496;51.404;7.232;2023-03-01T10:53:29;10.50;;;7.03;;
2972;SDS011;1496;51.404;7.232;2023-03-01T10:56:06;9.70;;;6.50;;
2972;SDS011;1496;51.404;7.232;2023-03-01T10:58:38;11.40;;;6.60;;
2972;SDS011;1496;51.404;7.232;2023-03-01T11:01:23;8.50;;;6.60;;
2972;SDS011;1496;51.404;7.232;2023-03-01T11:04:08;7.87;;;5.87;;
2972;SDS011;1496;51.404;7.232;2023-03-01T11:06:37;9.70;;;7.37;;
2972;SDS011;1496;51.404;7.232;2023-03-01T11:11:56;10.57;;;8.20;;
2972;SDS011;1496;51.404;7.232;2023-03-01T11:14:25;11.60;;;6.47;;
2972;SDS011;1496;51.404;7.232;2023-03-01T11:17:00;11.90;;;7.60;;
2972;SDS011;1496;51.404;7.232;2023-03-01T11:20:13;11.27;;;7.07;;
2972;SDS011;1496;51.404;7.232;2023-03-01T11:22:47;11.70;;;7.30;;
2972;SDS011;1496;51.404;7.232;2023-03-01T11:25:20;8.93;;;6.50;;
2972;SDS011;1496;51.404;7.232;2023-03-01T11:27:51;10.53;;;7.13;;
2972;SDS011;1496;51.404;7.232;2023-03-01T11:30:26;14.03;;;6.57;;
2972;SDS011;1496;51.404;7.232;2023-03-01T11:33:08;12.33;;;7.80;;
2972;SDS011;1496;51.404;7.232;2023-03-01T11:36:01;10.30;;;7.00;;
2972;SDS011;1496;51.404;7.232;2023-03-01T11:38:40;12.87;;;7.60;;
2972;SDS011;1496;51.404;7.232;2023-03-01T11:41:16;10.63;;;6.87;;
2972;SDS011;1496;51.404;7.232;2023-03-01T11:43:54;9.80;;;7.20;;
2972;SDS011;1496;51.404;7.232;2023-03-01T11:46:40;8.90;;;6.60;;
2972;SDS011;1496;51.404;7.232;2023-03-01T11:57:35;9.37;;;7.27;;
2972;SDS011;1496;51.404;7.232;2023-03-01T12:00:35;8.70;;;6.60;;
2972;SDS011;1496;51.404;7.232;2023-03-01T12:06:05;10.17;;;7.53;;
2972;SDS011;1496;51.404;7.232;2023-03-01T12:17:12;8.77;;;6.50;;
2972;SDS011;1496;51.404;7.232;2023-03-01T12:22:55;15.50;;;6.63;;
2972;SDS011;1496;51.404;7.232;2023-03-01T12:28:18;13.20;;;7.10;;
2972;SDS011;1496;51.404;7.232;2023-03-01T12:33:38;11.57;;;6.67;;
2972;SDS011;1496;51.404;7.232;2023-03-01T12:39:14;12.57;;;8.20;;
2972;SDS011;1496;51.404;7.232;2023-03-01T12:42:05;15.10;;;6.83;;
2972;SDS011;1496;51.404;7.232;2023-03-01T12:44:50;14.87;;;7.50;;
2972;SDS011;1496;51.404;7.232;2023-03-01T12:47:26;9.40;;;6.77;;
2972;SDS011;1496;51.404;7.232;2023-03-01T12:50:11;10.27;;;6.60;;
2972;SDS011;1496;51.404;7.232;2023-03-01T12:53:02;9.90;;;6.73;;
2972;SDS011;1496;51.404;7.232;2023-03-01T12:55:29;12.83;;;6.17;;
2972;SDS011;1496;51.404;7.232;2023-03-01T12:58:04;10.77;;;7.73;;
2972;SDS011;1496;51.404;7.232;2023-03-01T13:06:22;11.00;;;7.50;;
2972;SDS011;1496;51.404;7.232;2023-03-01T13:09:04;8.63;;;6.63;;
2972;SDS011;1496;51.404;7.232;2023-03-01T13:11:34;10.17;;;7.07;;
2972;SDS011;1496;51.404;7.232;2023-03-01T13:16:51;10.10;;;6.40;;
2972;SDS011;1496;51.404;7.232;2023-03-01T13:21:45;9.90;;;7.17;;
2972;SDS011;1496;51.404;7.232;2023-03-01T13:24:28;14.33;;;6.17;;
2972;SDS011;1496;51.404;7.232;2023-03-01T13:29:45;8.87;;;6.03;;
2972;SDS011;1496;51.404;7.232;2023-03-01T13:34:53;10.87;;;7.47;;
2972;SDS011;1496;51.404;7.232;2023-03-01T13:37:22;9.83;;;6.83;;
2972;SDS011;1496;51.404;7.232;2023-03-01T13:42:49;9.33;;;6.47;;
2972;SDS011;1496;51.404;7.232;2023-03-01T13:45:20;8.93;;;6.57;;
2972;SDS011;1496;51.404;7.232;2023-03-01T13:48:02;12.10;;;6.47;;
2972;SDS011;1496;51.404;7.232;2023-03-01T13:50:37;9.57;;;6.53;;
2972;SDS011;1496;51.404;7.232;2023-03-01T13:53:11;12.13;;;7.20;;
2972;SDS011;1496;51.404;7.232;2023-03-01T13:55:50;8.43;;;5.67;;
2972;SDS011;1496;51.404;7.232;2023-03-01T13:58:27;12.30;;;6.80;;
2972;SDS011;1496;51.404;7.232;2023-03-01T14:00:59;12.90;;;6.87;;
2972;SDS011;1496;51.404;7.232;2023-03-01T14:03:26;8.37;;;6.27;;
2972;SDS011;1496;51.404;7.232;2023-03-01T14:08:25;11.23;;;7.43;;
2972;SDS011;1496;51.404;7.232;2023-03-01T14:13:30;8.27;;;5.37;;
2972;SDS011;1496;51.404;7.232;2023-03-01T14:16:20;8.70;;;6.70;;
2972;SDS011;1496;51.404;7.232;2023-03-01T14:21:42;8.43;;;5.90;;
2972;SDS011;1496;51.404;7.232;2023-03-01T14:24:17;8.50;;;5.60;;
2972;SDS011;1496;51.404;7.232;2023-03-01T14:26:45;12.80;;;6.77;;
2972;SDS011;1496;51.404;7.232;2023-03-01T14:29:27;8.93;;;6.10;;
2972;SDS011;1496;51.404;7.232;2023-03-01T14:32:21;10.80;;;6.20;;
2972;SDS011;1496;51.404;7.232;2023-03-01T14:34:50;9.47;;;5.73;;
2972;SDS011;1496;51.404;7.232;2023-03-01T14:39:47;10.77;;;5.90;;
2972;SDS011;1496;51.404;7.232;2023-03-01T14:42:13;12.80;;;6.10;;
2972;SDS011;1496;51.404;7.232;2023-03-01T14:44:41;11.90;;;6.13;;
2972;SDS011;1496;51.404;7.232;2023-03-01T14:47:15;8.57;;;5.53;;
2972;SDS011;1496;51.404;7.232;2023-03-01T14:49:45;6.77;;;5.50;;
2972;SDS011;1496;51.404;7.232;2023-03-01T14:52:20;12.17;;;6.23;;
2972;SDS011;1496;51.404;7.232;2023-03-01T14:54:52;9.57;;;5.50;;
2972;SDS011;1496;51.404;7.232;2023-03-01T14:57:23;9.33;;;6.03;;
2972;SDS011;1496;51.404;7.232;2023-03-01T14:59:51;10.60;;;6.00;;
2972;SDS011;1496;51.404;7.232;2023-03-01T15:02:20;8.33;;;5.70;;
2972;SDS011;1496;51.404;7.232;2023-03-01T15:04:50;11.00;;;5.63;;
2972;SDS011;1496;51.404;7.232;2023-03-01T15:07:19;9.83;;;5.47;;
2972;SDS011;1496;51.404;7.232;2023-03-01T15:09:45;6.83;;;4.63;;
2972;SDS011;1496;51.404;7.232;2023-03-01T15:15:06;9.07;;;5.57;;
2972;SDS011;1496;51.404;7.232;2023-03-01T15:17:54;10.50;;;6.27;;
2972;SDS011;1496;51.404;7.232;2023-03-01T15:20:23;8.07;;;5.67;;
2972;SDS011;1496;51.404;7.232;2023-03-01T15:22:52;10.00;;;6.90;;
2972;SDS011;1496;51.404;7.232;2023-03-01T15:25:19;8.13;;;6.43;;
2972;SDS011;1496;51.404;7.232;2023-03-01T15:27:49;11.10;;;5.90;;
2972;SDS011;1496;51.404;7.232;2023-03-01T15:30:23;8.20;;;4.77;;
2972;SDS011;1496;51.404;7.232;2023-03-01T15:33:18;10.27;;;6.10;;
2972;SDS011;1496;51.404;7.232;2023-03-01T15:35:50;7.43;;;5.27;;
2972;SDS011;1496;51.404;7.232;2023-03-01T15:41:04;8.60;;;5.50;;
2972;SDS011;1496;51.404;7.232;2023-03-01T15:43:50;7.23;;;5.60;;
2972;SDS011;1496;51.404;7.232;2023-03-01T15:48:57;11.87;;;6.60;;
2972;SDS011;1496;51.404;7.232;2023-03-01T15:51:30;8.83;;;6.37;;
2972;SDS011;1496;51.404;7.232;2023-03-01T15:54:06;8.60;;;5.37;;
2972;SDS011;1496;51.404;7.232;2023-03-01T15:56:36;7.40;;;5.70;;
2972;SDS011;1496;51.404;7.232;2023-03-01T15:59:02;9.17;;;6.17;;
2972;SDS011;1496;51.404;7.232;2023-03-01T16:01:28;7.80;;;5.47;;
2972;SDS011;1496;51.404;7.232;2023-03-01T16:03:54;9.33;;;5.97;;
2972;SDS011;1496;51.404;7.232;2023-03-01T16:06:21;13.77;;;6.23;;
2972;SDS011;1496;51.404;7.232;2023-03-01T16:08:47;11.57;;;6.00;;
2972;SDS011;1496;51.404;7.232;2023-03-01T16:11:14;9.83;;;5.73;;
2972;SDS011;1496;51.404;7.232;2023-03-01T16:13:44;7.27;;;4.90;;
2972;SDS011;1496;51.404;7.232;2023-03-01T16:16:10;12.30;;;6.10;;
2972;SDS011;1496;51.404;7.232;2023-03-01T16:18:39;9.50;;;5.90;;
2972;SDS011;1496;51.404;7.232;2023-03-01T16:21:06;10.13;;;5.97;;
2972;SDS011;1496;51.404;7.232;2023-03-01T16:23:31;18.07;;;5.30;;
2972;SDS011;1496;51.404;7.232;2023-03-01T16:26:00;7.90;;;5.40;;
2972;SDS011;1496;51.404;7.232;2023-03-01T16:28:26;9.93;;;5.97;;
2972;SDS011;1496;51.404;7.232;2023-03-01T16:30:52;6.40;;;4.70;;
2972;SDS011;1496;51.404;7.232;2023-03-01T16:33:17;15.50;;;6.23;;
2972;SDS011;1496;51.404;7.232;2023-03-01T16:35:43;13.07;;;5.93;;
2972;SDS011;1496;51.404;7.232;2023-03-01T16:38:09;8.93;;;5.30;;
2972;SDS011;1496;51.404;7.232;2023-03-01T16:40:36;8.70;;;5.07;;
2972;SDS011;1496;51.404;7.232;2023-03-01T16:43:02;9.83;;;6.10;;
2972;SDS011;1496;51.404;7.232;2023-03-01T16:45:29;6.23;;;5.17;;
2972;SDS011;1496;51.404;7.232;2023-03-01T16:48:00;8.17;;;5.33;;
2972;SDS011;1496;51.404;7.232;2023-03-01T16:50:26;10.13;;;5.20;;
2972;SDS011;1496;51.404;7.232;2023-03-01T16:52:53;6.93;;;4.77;;
2972;SDS011;1496;51.404;7.232;2023-03-01T16:55:18;7.93;;;5.63;;
2972;SDS011;1496;51.404;7.232;2023-03-01T16:57:44;10.13;;;5.00;;
2972;SDS011;1496;51.404;7.232;2023-03-01T17:00:10;6.27;;;5.30;;
2972;SDS011;1496;51.404;7.232;2023-03-01T17:02:37;8.80;;;5.73;;
2972;SDS011;1496;51.404;7.232;2023-03-01T17:05:05;11.40;;;5.33;;